createdAt,value
2019-01-11T00:01:03.805Z,10.27
2019-01-11T00:03:52.628Z,13.43
2019-01-11T00:06:41.412Z,11.23
2019-01-11T00:09:30.329Z,9.63
2019-01-11T00:12:19.449Z,8.97
2019-01-11T00:15:08.744Z,14.33
2019-01-11T00:17:38.931Z,9.03
2019-01-11T00:20:09.109Z,10.10
2019-01-11T00:22:39.229Z,8.20
2019-01-11T00:25:16.936Z,9.57
2019-01-11T00:28:06.449Z,7.90
2019-01-11T00:30:55.612Z,8.50
2019-01-11T00:33:44.921Z,9.40
2019-01-11T00:36:34.120Z,10.73
2019-01-11T00:39:23.249Z,17.90
2019-01-11T00:42:12.484Z,15.03
2019-01-11T00:45:01.490Z,15.47
2019-01-11T00:47:44.221Z,17.80
2019-01-11T00:50:33.412Z,15.27
2019-01-11T00:53:22.636Z,19.13
2019-01-11T00:56:12.096Z,15.20
2019-01-11T00:59:00.908Z,23.03
2019-01-11T01:01:49.543Z,21.43
2019-01-11T01:04:38.386Z,17.10
2019-01-11T01:07:27.612Z,15.97
2019-01-11T01:10:16.660Z,23.20
2019-01-11T01:13:05.878Z,19.80
2019-01-11T01:15:54.656Z,21.33
2019-01-11T01:18:43.811Z,21.93
2019-01-11T01:21:32.474Z,19.67
2019-01-11T01:24:21.479Z,19.33
2019-01-11T01:27:10.599Z,19.97
2019-01-11T01:29:46.975Z,22.63
2019-01-11T01:32:35.443Z,19.53
2019-01-11T01:35:25.879Z,23.93
2019-01-11T01:38:14.194Z,22.27
2019-01-11T01:41:02.878Z,26.10
2019-01-11T01:43:51.566Z,26.57
2019-01-11T01:46:40.476Z,27.70
2019-01-11T01:49:29.493Z,33.03
2019-01-11T01:52:18.057Z,35.13
2019-01-11T01:55:08.344Z,33.73
2019-01-11T01:57:58.062Z,32.63
2019-01-11T02:00:46.908Z,34.93
2019-01-11T02:03:35.786Z,39.43
2019-01-11T02:06:24.388Z,42.57
2019-01-11T02:09:13.341Z,50.83
2019-01-11T02:11:52.931Z,44.70
2019-01-11T02:14:42.252Z,59.80
2019-01-11T02:17:31.532Z,50.47
2019-01-11T02:20:20.390Z,50.03
2019-01-11T02:23:09.602Z,47.50
2019-01-11T02:25:57.921Z,37.40
2019-01-11T02:28:46.949Z,37.20
2019-01-11T02:31:36.282Z,37.33
2019-01-11T02:34:25.158Z,38.33
2019-01-11T02:37:14.080Z,37.23
2019-01-11T02:40:03.558Z,43.23
2019-01-11T02:42:52.509Z,36.93
2019-01-11T02:45:41.114Z,34.70
2019-01-11T02:48:29.632Z,34.20
2019-01-11T02:51:18.870Z,33.20
2019-01-11T02:53:56.190Z,36.47
2019-01-11T02:56:44.462Z,46.47
2019-01-11T02:59:33.495Z,41.03
2019-01-11T03:02:22.550Z,36.37
2019-01-11T03:05:11.682Z,46.17
2019-01-11T03:08:00.705Z,46.37
2019-01-11T03:10:51.596Z,55.40
2019-01-11T03:13:41.225Z,52.40
2019-01-11T03:16:30.434Z,51.50
2019-01-11T03:19:18.972Z,59.27
2019-01-11T03:22:07.455Z,55.07
2019-01-11T03:24:56.626Z,53.40
2019-01-11T03:27:46.039Z,56.03
2019-01-11T03:30:35.199Z,51.03
2019-01-11T03:33:24.012Z,60.63
2019-01-11T03:36:00.912Z,54.90
2019-01-11T03:38:49.770Z,53.57
2019-01-11T03:41:56.551Z,65.10
2019-01-11T03:44:45.301Z,56.77
2019-01-11T03:47:34.360Z,59.87
2019-01-11T03:50:23.962Z,73.50
2019-01-11T03:53:12.654Z,58.20
2019-01-11T03:56:01.785Z,59.03
2019-01-11T03:58:50.624Z,61.00
2019-01-11T04:01:39.449Z,64.30
2019-01-11T04:04:35.886Z,60.23
2019-01-11T04:07:24.372Z,55.13
2019-01-11T04:10:16.616Z,58.80
2019-01-11T04:13:05.797Z,57.43
2019-01-11T04:15:56.571Z,57.90
2019-01-11T04:18:35.169Z,57.60
2019-01-11T04:21:05.819Z,54.07
2019-01-11T04:23:56.340Z,58.30
2019-01-11T04:26:45.791Z,53.67
2019-01-11T04:29:34.195Z,51.87
2019-01-11T04:32:23.111Z,53.00
2019-01-11T04:35:12.298Z,56.13
2019-01-11T04:38:01.613Z,49.20
2019-01-11T04:40:50.667Z,55.20
2019-01-11T04:43:21.613Z,43.97
2019-01-11T04:45:51.803Z,49.67
2019-01-11T04:48:22.077Z,42.20
2019-01-11T04:50:52.062Z,49.60
2019-01-11T04:53:22.010Z,57.20
2019-01-11T04:56:11.179Z,48.70
2019-01-11T04:59:00.257Z,48.90
2019-01-11T05:01:49.070Z,49.03
2019-01-11T05:04:38.195Z,53.17
2019-01-11T05:07:27.241Z,49.57
2019-01-11T05:10:18.153Z,47.83
2019-01-11T05:13:25.983Z,43.70
2019-01-11T05:16:15.242Z,47.57
2019-01-11T05:19:03.810Z,44.77
2019-01-11T05:21:52.313Z,46.77
2019-01-11T05:24:41.370Z,51.57
2019-01-11T05:27:30.134Z,49.57
2019-01-11T05:30:20.265Z,49.20
2019-01-11T05:33:09.869Z,45.43
2019-01-11T05:35:58.649Z,41.73
2019-01-11T05:38:47.848Z,45.70
2019-01-11T05:41:37.011Z,50.07
2019-01-11T05:44:26.074Z,52.33
2019-01-11T05:47:15.077Z,47.73
2019-01-11T05:50:04.956Z,47.83
2019-01-11T05:52:53.760Z,51.03
2019-01-11T05:55:47.237Z,58.27
2019-01-11T05:58:39.645Z,55.73
2019-01-11T06:01:28.484Z,54.90
2019-01-11T06:04:41.791Z,60.97
2019-01-11T06:07:38.774Z,68.40
2019-01-11T06:10:29.453Z,62.67
2019-01-11T06:13:17.964Z,67.30
2019-01-11T06:16:06.921Z,71.97
2019-01-11T06:18:55.952Z,66.90
2019-01-11T06:21:44.521Z,60.00
2019-01-11T06:24:34.152Z,62.63
2019-01-11T06:27:22.630Z,63.50
2019-01-11T06:30:13.623Z,61.03
2019-01-11T06:33:02.284Z,65.03
2019-01-11T06:35:51.244Z,76.73
2019-01-11T06:38:21.290Z,69.10
2019-01-11T06:41:10.367Z,71.53
2019-01-11T06:43:59.317Z,71.83
2019-01-11T06:46:48.566Z,70.20
2019-01-11T06:49:37.278Z,76.07
2019-01-11T06:52:25.856Z,73.87
2019-01-11T06:55:14.871Z,72.60
2019-01-11T06:58:04.328Z,72.53
2019-01-11T07:00:53.237Z,73.27
2019-01-11T07:03:42.158Z,70.97
2019-01-11T07:06:32.909Z,64.10
2019-01-11T07:09:21.705Z,74.83
2019-01-11T07:12:10.913Z,66.60
2019-01-11T07:14:59.668Z,72.40
2019-01-11T07:17:48.393Z,72.80
2019-01-11T07:20:18.570Z,80.33
2019-01-11T07:23:07.529Z,60.03
2019-01-11T07:25:56.921Z,62.20
2019-01-11T07:28:45.894Z,69.17
2019-01-11T07:31:19.260Z,63.93
2019-01-11T07:33:49.611Z,67.23
2019-01-11T07:36:29.823Z,78.63
2019-01-11T07:39:00.204Z,80.13
2019-01-11T07:41:30.810Z,69.43
2019-01-11T07:44:00.883Z,70.33
2019-01-11T07:46:30.838Z,60.53
2019-01-11T07:49:01.360Z,58.00
2019-01-11T07:51:31.830Z,57.50
2019-01-11T07:54:02.711Z,56.30
2019-01-11T07:56:32.841Z,56.37
2019-01-11T07:59:03.303Z,54.50
2019-01-11T08:01:35.962Z,54.77
2019-01-11T08:04:06.402Z,51.50
2019-01-11T08:06:36.766Z,55.87
2019-01-11T08:09:09.118Z,45.93
2019-01-11T08:11:39.284Z,50.37
2019-01-11T08:14:09.835Z,43.90
2019-01-11T08:16:39.943Z,45.00
2019-01-11T08:19:10.159Z,51.37
2019-01-11T08:21:40.360Z,46.80
2019-01-11T08:24:10.350Z,45.80
2019-01-11T08:26:40.585Z,45.07
2019-01-11T08:29:10.691Z,49.10
2019-01-11T08:31:40.862Z,49.27
2019-01-11T08:34:10.876Z,49.83
2019-01-11T08:36:40.878Z,51.83
2019-01-11T08:39:11.112Z,49.73
2019-01-11T08:41:41.108Z,47.93
2019-01-11T08:44:11.148Z,51.03
2019-01-11T08:46:41.202Z,54.50
2019-01-11T08:49:11.450Z,51.07
2019-01-11T08:51:41.606Z,48.37
2019-01-11T08:54:11.697Z,52.60
2019-01-11T08:56:41.925Z,47.90
2019-01-11T08:59:11.897Z,48.37
2019-01-11T09:01:41.920Z,54.67
2019-01-11T09:04:11.855Z,46.60
2019-01-11T09:06:41.924Z,48.00
2019-01-11T09:09:12.118Z,47.40
2019-01-11T09:11:42.329Z,46.20
2019-01-11T09:14:29.988Z,42.43
2019-01-11T09:17:00.154Z,41.77
2019-01-11T09:19:30.269Z,46.57
2019-01-11T09:22:00.582Z,47.47
2019-01-11T09:24:30.770Z,46.13
2019-01-11T09:27:00.815Z,48.10
2019-01-11T09:29:30.770Z,50.37
2019-01-11T09:32:00.824Z,45.20
2019-01-11T09:34:30.902Z,46.20
2019-01-11T09:37:01.240Z,49.30
2019-01-11T09:39:31.194Z,44.40
2019-01-11T09:42:01.144Z,36.73
2019-01-11T09:44:31.478Z,44.93
2019-01-11T09:47:01.588Z,48.50
2019-01-11T09:49:32.447Z,52.27
2019-01-11T09:52:02.912Z,50.40
2019-01-11T09:54:32.936Z,46.17
2019-01-11T09:57:03.166Z,53.20
2019-01-11T09:59:35.142Z,56.73
2019-01-11T10:02:21.589Z,45.00
2019-01-11T10:04:51.724Z,50.73
2019-01-11T10:07:25.690Z,58.60
2019-01-11T10:09:55.990Z,60.07
2019-01-11T10:12:26.119Z,52.33
2019-01-11T10:14:56.355Z,51.60
2019-01-11T10:17:26.361Z,48.87
2019-01-11T10:19:56.505Z,50.40
2019-01-11T10:22:26.762Z,46.33
2019-01-11T10:24:56.825Z,52.83
2019-01-11T10:27:26.730Z,49.83
2019-01-11T10:29:57.052Z,56.97
2019-01-11T10:32:27.013Z,56.77
2019-01-11T10:34:57.126Z,51.30
2019-01-11T10:37:27.305Z,47.97
2019-01-11T10:39:57.313Z,55.00
2019-01-11T10:42:27.640Z,56.37
2019-01-11T10:44:57.724Z,50.80
2019-01-11T10:47:27.976Z,57.23
2019-01-11T10:49:58.072Z,68.47
2019-01-11T10:52:28.066Z,65.80
2019-01-11T10:54:58.009Z,65.13
2019-01-11T10:57:27.981Z,58.77
2019-01-11T10:59:58.133Z,65.33
2019-01-11T11:02:28.358Z,67.50
2019-01-11T11:04:58.412Z,68.67
2019-01-11T11:07:28.707Z,74.83
2019-01-11T11:09:59.433Z,77.53
2019-01-11T11:12:29.529Z,64.70
2019-01-11T11:15:00.847Z,65.43
2019-01-11T11:17:49.786Z,71.40
2019-01-11T11:20:38.703Z,65.67
2019-01-11T11:23:27.418Z,60.80
2019-01-11T11:26:16.173Z,74.77
2019-01-11T11:29:05.723Z,67.40
2019-01-11T11:31:54.290Z,74.73
2019-01-11T11:34:44.976Z,66.50
2019-01-11T11:37:18.132Z,68.70
2019-01-11T11:40:07.009Z,72.87
2019-01-11T11:42:56.044Z,74.80
2019-01-11T11:45:45.143Z,72.57
2019-01-11T11:48:33.690Z,70.10
2019-01-11T11:51:22.556Z,84.90
2019-01-11T11:54:11.382Z,72.30
2019-01-11T11:57:00.505Z,73.93
2019-01-11T11:59:49.166Z,76.17
2019-01-11T12:02:38.122Z,83.97
2019-01-11T12:05:27.377Z,73.23
2019-01-11T12:08:16.019Z,77.13
2019-01-11T12:11:04.951Z,74.73
2019-01-11T12:13:54.345Z,83.93
2019-01-11T12:16:24.493Z,78.80
2019-01-11T12:18:55.440Z,70.03
2019-01-11T12:21:25.581Z,81.00
2019-01-11T12:23:56.064Z,75.03
2019-01-11T12:26:26.748Z,80.50
2019-01-11T12:28:56.813Z,83.60
2019-01-11T12:31:26.892Z,93.07
2019-01-11T12:33:56.999Z,71.50
2019-01-11T12:36:26.976Z,75.07
2019-01-11T12:38:57.033Z,84.33
2019-01-11T12:41:27.169Z,78.33
2019-01-11T12:43:57.354Z,91.87
2019-01-11T12:46:27.536Z,74.03
2019-01-11T12:48:57.609Z,70.47
2019-01-11T12:51:27.562Z,83.93
2019-01-11T12:53:57.739Z,72.17
2019-01-11T12:56:28.028Z,77.43
2019-01-11T12:58:58.152Z,71.87
2019-01-11T13:01:28.136Z,65.93
2019-01-11T13:03:58.209Z,76.07
2019-01-11T13:06:28.243Z,63.03
2019-01-11T13:08:58.378Z,69.50
2019-01-11T13:11:28.427Z,60.33
2019-01-11T13:13:58.376Z,65.17
2019-01-11T13:16:28.693Z,58.43
2019-01-11T13:18:59.115Z,57.73
2019-01-11T13:21:29.132Z,61.53
2019-01-11T13:23:59.312Z,56.23
2019-01-11T13:26:29.340Z,68.13
2019-01-11T13:28:59.506Z,68.50
2019-01-11T13:31:29.650Z,67.70
2019-01-11T13:34:00.022Z,65.50
2019-01-11T13:36:30.270Z,62.60
2019-01-11T13:39:00.285Z,63.63
2019-01-11T13:41:30.713Z,61.00
2019-01-11T13:44:00.753Z,57.50
2019-01-11T13:46:30.790Z,54.00
2019-01-11T13:49:00.859Z,53.93
2019-01-11T13:51:30.853Z,46.60
2019-01-11T13:54:00.959Z,49.20
2019-01-11T13:56:31.109Z,51.20
2019-01-11T13:59:01.083Z,57.27
2019-01-11T14:01:31.327Z,55.20
2019-01-11T14:04:01.575Z,62.20
2019-01-11T14:06:32.779Z,53.70
2019-01-11T14:09:02.914Z,49.53
2019-01-11T14:11:33.729Z,48.10
2019-01-11T14:14:03.888Z,50.37
2019-01-11T14:16:34.314Z,55.60
2019-01-11T14:19:04.444Z,54.77
2019-01-11T14:21:34.716Z,47.30
2019-01-11T14:24:04.847Z,42.93
2019-01-11T14:26:34.835Z,40.13
2019-01-11T14:29:05.447Z,37.90
2019-01-11T14:31:35.495Z,33.43
2019-01-11T14:34:05.946Z,34.73
2019-01-11T14:36:36.206Z,28.73
2019-01-11T14:39:09.010Z,28.03
2019-01-11T14:41:39.314Z,26.20
2019-01-11T14:44:09.414Z,24.13
2019-01-11T14:46:39.512Z,27.57
2019-01-11T14:49:09.757Z,21.63
2019-01-11T14:51:39.852Z,20.40
2019-01-11T14:54:09.940Z,21.53
2019-01-11T14:56:40.339Z,24.10
2019-01-11T14:59:10.630Z,23.60
2019-01-11T15:01:40.681Z,22.60
2019-01-11T15:04:10.721Z,19.40
2019-01-11T15:06:40.902Z,19.93
2019-01-11T15:09:11.582Z,17.77
2019-01-11T15:11:41.920Z,21.63
2019-01-11T15:14:12.040Z,14.37
2019-01-11T15:16:42.089Z,18.50
2019-01-11T15:19:15.663Z,16.23
2019-01-11T15:21:46.064Z,18.23
2019-01-11T15:24:17.867Z,14.70
2019-01-11T15:26:48.012Z,15.03
2019-01-11T15:29:18.178Z,18.60
2019-01-11T15:31:48.219Z,21.30
2019-01-11T15:34:18.384Z,20.77
2019-01-11T15:36:48.448Z,17.10
2019-01-11T15:39:18.743Z,26.40
2019-01-11T15:41:48.891Z,16.10
2019-01-11T15:44:19.006Z,19.33
2019-01-11T15:46:49.332Z,24.23
2019-01-11T15:49:19.660Z,20.80
2019-01-11T15:51:49.666Z,20.30
2019-01-11T15:54:20.940Z,18.70
2019-01-11T15:56:50.947Z,19.33
2019-01-11T15:59:20.920Z,19.10
2019-01-11T16:01:54.873Z,19.80
2019-01-11T16:04:24.846Z,21.17
2019-01-11T16:06:55.390Z,19.17
2019-01-11T16:09:56.921Z,23.93
2019-01-11T16:12:50.868Z,21.73
2019-01-11T16:15:42.545Z,19.60
2019-01-11T16:18:17.303Z,17.57
2019-01-11T16:20:47.675Z,14.83
2019-01-11T16:23:18.023Z,13.73
2019-01-11T16:25:47.992Z,18.60
2019-01-11T16:28:18.454Z,11.50
2019-01-11T16:30:48.433Z,12.30
2019-01-11T16:33:37.490Z,10.57
2019-01-11T16:36:26.582Z,14.83
2019-01-11T16:39:16.064Z,13.10
2019-01-11T16:42:05.188Z,10.33
2019-01-11T16:44:53.821Z,10.80
2019-01-11T16:47:43.064Z,10.00
2019-01-11T16:50:32.250Z,14.73
2019-01-11T16:53:21.273Z,14.40
2019-01-11T16:56:10.917Z,12.27
2019-01-11T16:59:00.099Z,14.10
2019-01-11T17:01:49.209Z,15.00
2019-01-11T17:04:38.749Z,23.07
2019-01-11T17:07:27.872Z,18.30
2019-01-11T17:10:16.973Z,17.80
2019-01-11T17:12:46.936Z,28.47
2019-01-11T17:15:36.264Z,12.97
2019-01-11T17:18:25.128Z,16.93
2019-01-11T17:21:13.829Z,19.83
2019-01-11T17:24:02.720Z,21.40
2019-01-11T17:26:51.978Z,17.97
2019-01-11T17:29:46.979Z,14.30
2019-01-11T17:32:30.949Z,19.20
2019-01-11T17:35:19.938Z,16.27
2019-01-11T17:38:08.376Z,22.70
2019-01-11T17:40:44.658Z,21.73
2019-01-11T17:43:34.002Z,21.70
2019-01-11T17:46:22.774Z,16.60
2019-01-11T17:49:11.973Z,23.00
2019-01-11T17:52:01.065Z,16.50
2019-01-11T17:54:49.837Z,26.60
2019-01-11T17:57:19.868Z,20.00
2019-01-11T18:00:12.225Z,13.17
2019-01-11T18:02:42.413Z,17.17
2019-01-11T18:05:21.775Z,17.07
2019-01-11T18:07:51.910Z,18.23
2019-01-11T18:10:22.259Z,19.53
2019-01-11T18:12:52.258Z,19.40
2019-01-11T18:15:23.653Z,21.67
2019-01-11T18:17:53.966Z,23.33
2019-01-11T18:20:26.494Z,26.00
2019-01-11T18:22:56.873Z,24.87
2019-01-11T18:25:27.072Z,19.17
2019-01-11T18:27:57.598Z,21.60
2019-01-11T18:30:27.695Z,19.97
2019-01-11T18:32:57.853Z,27.57
2019-01-11T18:35:28.316Z,23.33
2019-01-11T18:37:58.441Z,24.80
2019-01-11T18:40:28.814Z,24.73
2019-01-11T18:42:59.325Z,23.30
2019-01-11T18:45:29.540Z,22.40
2019-01-11T18:48:00.073Z,23.27
2019-01-11T18:50:30.558Z,20.70
2019-01-11T18:53:01.210Z,20.47
2019-01-11T18:55:31.849Z,21.73
2019-01-11T18:58:02.503Z,19.47
2019-01-11T19:00:33.113Z,16.73
2019-01-11T19:03:03.989Z,23.97
2019-01-11T19:05:34.977Z,18.20
2019-01-11T19:08:24.000Z,21.03
2019-01-11T19:11:13.173Z,24.87
2019-01-11T19:13:43.169Z,19.40
2019-01-11T19:16:13.336Z,22.23
2019-01-11T19:19:03.030Z,22.50
2019-01-11T19:21:52.493Z,23.67
2019-01-11T19:24:41.365Z,31.17
2019-01-11T19:27:30.054Z,25.17
2019-01-11T19:30:24.085Z,28.00
2019-01-11T19:33:13.401Z,29.40
2019-01-11T19:36:02.851Z,30.47
2019-01-11T19:38:52.061Z,30.30
2019-01-11T19:41:41.377Z,30.43
2019-01-11T19:44:11.741Z,28.77
2019-01-11T19:46:42.448Z,31.40
2019-01-11T19:49:12.866Z,27.80
2019-01-11T19:51:43.295Z,29.30
2019-01-11T19:54:13.952Z,33.30
2019-01-11T19:56:43.998Z,27.60
2019-01-11T19:59:14.613Z,26.77
2019-01-11T20:01:44.921Z,28.07
2019-01-11T20:04:15.397Z,27.20
2019-01-11T20:07:04.339Z,27.43
2019-01-11T20:09:53.680Z,25.60
2019-01-11T20:12:42.778Z,29.17
2019-01-11T20:15:32.156Z,22.13
2019-01-11T20:18:20.892Z,28.07
2019-01-11T20:21:09.931Z,23.03
2019-01-11T20:23:59.466Z,24.40
2019-01-11T20:26:48.483Z,25.30
2019-01-11T20:29:37.577Z,29.10
2019-01-11T20:32:26.907Z,27.60
2019-01-11T20:35:15.621Z,26.13
2019-01-11T20:38:04.972Z,29.70
2019-01-11T20:40:54.113Z,29.63
2019-01-11T20:43:43.264Z,28.10
2019-01-11T20:46:32.861Z,31.17
2019-01-11T20:49:22.676Z,31.93
2019-01-11T20:52:11.889Z,31.60
2019-01-11T20:55:01.008Z,30.47
2019-01-11T20:57:50.408Z,30.20
2019-01-11T21:00:40.631Z,27.53
2019-01-11T21:03:29.853Z,29.97
2019-01-11T21:06:19.413Z,25.00
2019-01-11T21:09:09.911Z,28.27
2019-01-11T21:11:58.579Z,35.73
2019-01-11T21:14:47.487Z,29.13
2019-01-11T21:17:36.464Z,33.17
2019-01-11T21:20:26.338Z,33.87
2019-01-11T21:23:15.830Z,37.60
2019-01-11T21:26:05.199Z,36.63
2019-01-11T21:28:54.806Z,26.00
2019-01-11T21:31:43.634Z,31.97
2019-01-11T21:34:33.583Z,35.10
2019-01-11T21:37:25.207Z,38.00
2019-01-11T21:40:16.462Z,37.00
2019-01-11T21:43:05.345Z,37.17
2019-01-11T21:45:54.511Z,34.40
2019-01-11T21:48:43.950Z,35.03
2019-01-11T21:51:33.399Z,32.73
2019-01-11T21:54:22.770Z,30.73
2019-01-11T21:57:12.036Z,33.47
2019-01-11T22:00:01.234Z,34.60
2019-01-11T22:02:50.041Z,32.37
2019-01-11T22:05:39.398Z,32.90
2019-01-11T22:08:28.279Z,32.97
2019-01-11T22:10:58.860Z,33.37
2019-01-11T22:13:47.962Z,30.63
2019-01-11T22:16:37.222Z,33.10
2019-01-11T22:19:26.107Z,30.57
2019-01-11T22:21:56.446Z,31.63
2019-01-11T22:24:45.672Z,31.53
2019-01-11T22:27:34.974Z,31.70
2019-01-11T22:30:30.234Z,33.87
2019-01-11T22:33:14.591Z,36.10
2019-01-11T22:36:04.190Z,32.00
2019-01-11T22:38:53.044Z,41.30
2019-01-11T22:41:42.434Z,34.50
2019-01-11T22:44:31.611Z,35.67
2019-01-11T22:47:20.425Z,41.10
2019-01-11T22:50:10.498Z,37.47
2019-01-11T22:52:59.879Z,40.57
2019-01-11T22:55:48.903Z,41.30
2019-01-11T22:58:38.460Z,38.33
2019-01-11T23:01:59.072Z,40.70
2019-01-11T23:04:48.304Z,35.27
2019-01-11T23:07:47.145Z,37.70
2019-01-11T23:11:12.218Z,41.33
2019-01-11T23:14:01.428Z,32.17
2019-01-11T23:17:21.336Z,29.33
2019-01-11T23:20:12.791Z,29.87
2019-01-11T23:23:01.634Z,25.67
2019-01-11T23:25:50.948Z,32.10
2019-01-11T23:28:39.733Z,31.80
2019-01-11T23:31:28.358Z,27.97
2019-01-11T23:34:17.126Z,36.20
2019-01-11T23:37:06.520Z,39.33
2019-01-11T23:39:55.893Z,34.80
2019-01-11T23:42:44.434Z,29.57
2019-01-11T23:45:33.829Z,30.13
2019-01-11T23:48:22.916Z,30.13
2019-01-11T23:51:12.154Z,31.33
2019-01-11T23:54:01.059Z,39.83
2019-01-11T23:56:50.406Z,35.77
2019-01-11T23:59:39.859Z,30.67
